createdAt,value
2023-05-21T00:01:16.410Z,101824.22
2023-05-21T00:03:46.062Z,101826.19
2023-05-21T00:06:16.418Z,101825.72
2023-05-21T00:08:43.329Z,101820.97
2023-05-21T00:11:11.211Z,101820.97
2023-05-21T00:13:38.720Z,101826.56
2023-05-21T00:16:06.050Z,101820.03
2023-05-21T00:18:34.344Z,101822.47
2023-05-21T00:21:01.909Z,101820.03
2023-05-21T00:23:29.147Z,101818.88
2023-05-21T00:25:56.420Z,101825.28
2023-05-21T00:28:23.159Z,101813.16
2023-05-21T00:30:49.935Z,101806.31
2023-05-21T00:33:16.757Z,101806.31
2023-05-21T00:35:43.629Z,101805.16
2023-05-21T00:38:10.397Z,101805.41
2023-05-21T00:40:37.168Z,101800.50
2023-05-21T00:43:03.907Z,101797.94
2023-05-21T00:45:30.675Z,101801.03
2023-05-21T00:47:57.890Z,101781.91
2023-05-21T00:50:24.879Z,101785.97
2023-05-21T00:52:51.917Z,101782.28
2023-05-21T00:55:18.762Z,101791.63
2023-05-21T00:57:46.219Z,101794.75
2023-05-21T01:00:14.968Z,101790.34
2023-05-21T01:02:42.379Z,101791.63
2023-05-21T01:05:10.730Z,101794.41
2023-05-21T01:07:41.584Z,101783.16
2023-05-21T01:10:10.832Z,101775.13
2023-05-21T01:12:40.681Z,101781.06
2023-05-21T01:15:08.742Z,101780.91
2023-05-21T01:17:35.749Z,101772.44
2023-05-21T01:20:10.185Z,101772.44
2023-05-21T01:22:42.099Z,101764.78
2023-05-21T01:25:09.613Z,101761.88
2023-05-21T01:27:36.328Z,101760.59
2023-05-21T01:30:03.312Z,101765.31
2023-05-21T01:32:50.036Z,101769.75
2023-05-21T01:35:26.397Z,101766.97
2023-05-21T01:38:06.268Z,101762.91
2023-05-21T01:40:54.601Z,101752.09
2023-05-21T01:43:23.620Z,101754.88
2023-05-21T01:45:54.647Z,101760.44
2023-05-21T01:48:24.374Z,101759.97
2023-05-21T01:50:53.072Z,101759.84
2023-05-21T01:53:19.901Z,101756.22
2023-05-21T01:55:47.096Z,101757.88
2023-05-21T01:58:15.788Z,101762.50
2023-05-21T02:00:42.827Z,101765.97
2023-05-21T02:03:09.712Z,101749.13
2023-05-21T02:05:36.784Z,101761.75
2023-05-21T02:08:03.882Z,101745.72
2023-05-21T02:10:30.777Z,101752.94
2023-05-21T02:12:57.530Z,101756.88
2023-05-21T02:15:25.012Z,101753.63
2023-05-21T02:17:51.923Z,101758.72
2023-05-21T02:20:19.150Z,101759.84
2023-05-21T02:22:48.162Z,101752.66
2023-05-21T02:25:16.838Z,101755.09
2023-05-21T02:27:44.648Z,101755.94
2023-05-21T02:30:12.645Z,101757.53
2023-05-21T02:32:43.289Z,101767.38
2023-05-21T02:35:11.904Z,101767.25
2023-05-21T02:37:40.652Z,101754.69
2023-05-21T02:40:10.245Z,101756.50
2023-05-21T02:42:39.765Z,101756.88
2023-05-21T02:45:11.725Z,101761.50
2023-05-21T02:47:39.223Z,101754.13
2023-05-21T02:50:07.937Z,101761.19
2023-05-21T02:52:34.948Z,101761.06
2023-05-21T02:55:01.707Z,101756.16
2023-05-21T02:57:28.493Z,101756.47
2023-05-21T02:59:55.217Z,101752.88
2023-05-21T03:02:22.655Z,101748.81
2023-05-21T03:04:51.657Z,101742.44
2023-05-21T03:07:20.075Z,101748.81
2023-05-21T03:09:47.314Z,101739.31
2023-05-21T03:12:15.134Z,101744.06
2023-05-21T03:14:46.583Z,101745.69
2023-05-21T03:17:17.253Z,101744.06
2023-05-21T03:19:45.011Z,101741.75
2023-05-21T03:22:12.337Z,101743.38
2023-05-21T03:24:39.450Z,101741.91
2023-05-21T03:27:07.196Z,101740.78
2023-05-21T03:29:34.927Z,101732.44
2023-05-21T03:32:02.390Z,101732.75
2023-05-21T03:34:29.254Z,101741.09
2023-05-21T03:36:56.008Z,101735.06
2023-05-21T03:39:22.802Z,101744.06
2023-05-21T03:41:49.571Z,101742.44
2023-05-21T03:44:16.488Z,101745.41
2023-05-21T03:46:45.149Z,101738.09
2023-05-21T03:49:11.936Z,101753.00
2023-05-21T03:51:39.722Z,101746.97
2023-05-21T03:54:06.658Z,101737.00
2023-05-21T03:56:33.573Z,101748.94
2023-05-21T03:59:00.352Z,101739.28
2023-05-21T04:01:28.539Z,101742.06
2023-05-21T04:03:55.940Z,101744.19
2023-05-21T04:06:22.903Z,101738.63
2023-05-21T04:08:49.866Z,101735.50
2023-05-21T04:11:16.937Z,101733.88
2023-05-21T04:13:43.755Z,101730.75
2023-05-21T04:16:10.974Z,101723.72
2023-05-21T04:18:39.550Z,101737.75
2023-05-21T04:21:06.425Z,101727.94
2023-05-21T04:23:33.779Z,101731.03
2023-05-21T04:26:00.590Z,101715.84
2023-05-21T04:28:29.986Z,101723.38
2023-05-21T04:30:56.792Z,101725.34
2023-05-21T04:33:24.611Z,101723.38
2023-05-21T04:35:52.172Z,101720.13
2023-05-21T04:38:19.930Z,101717.81
2023-05-21T04:40:51.057Z,101730.91
2023-05-21T04:43:18.116Z,101728.59
2023-05-21T04:45:45.272Z,101732.66
2023-05-21T04:48:12.785Z,101728.06
2023-05-21T04:50:41.666Z,101723.00
2023-05-21T04:53:08.821Z,101725.06
2023-05-21T04:55:40.059Z,101723.94
2023-05-21T04:58:13.178Z,101720.50
2023-05-21T05:00:42.333Z,101716.72
2023-05-21T05:03:09.327Z,101708.16
2023-05-21T05:05:36.444Z,101699.59
2023-05-21T05:08:04.201Z,101706.13
2023-05-21T05:10:30.996Z,101712.97
2023-05-21T05:12:57.739Z,101714.63
2023-05-21T05:15:24.488Z,101713.91
2023-05-21T05:17:52.379Z,101708.50
2023-05-21T05:20:19.187Z,101707.00
2023-05-21T05:22:45.985Z,101701.59
2023-05-21T05:25:12.691Z,101700.91
2023-05-21T05:27:39.520Z,101707.06
2023-05-21T05:30:07.356Z,101708.47
2023-05-21T05:32:37.075Z,101717.78
2023-05-21T05:35:04.144Z,101717.41
2023-05-21T05:37:31.199Z,101717.88
2023-05-21T05:39:58.004Z,101725.91
2023-05-21T05:42:24.875Z,101725.22
2023-05-21T05:44:51.631Z,101726.97
2023-05-21T05:47:18.321Z,101727.31
2023-05-21T05:49:45.106Z,101720.59
2023-05-21T05:52:11.979Z,101717.81
2023-05-21T05:54:38.893Z,101715.97
2023-05-21T05:57:05.977Z,101717.13
2023-05-21T05:59:34.004Z,101720.72
2023-05-21T06:02:01.511Z,101724.78
2023-05-21T06:04:30.253Z,101724.09
2023-05-21T06:07:00.687Z,101730.50
2023-05-21T06:09:27.522Z,101732.09
2023-05-21T06:11:54.373Z,101732.25
2023-05-21T06:14:21.174Z,101741.50
2023-05-21T06:16:47.914Z,101732.16
2023-05-21T06:19:14.841Z,101737.81
2023-05-21T06:21:41.637Z,101744.34
2023-05-21T06:24:08.388Z,101746.44
2023-05-21T06:26:35.221Z,101742.94
2023-05-21T06:29:03.849Z,101735.56
2023-05-21T06:31:33.301Z,101744.38
2023-05-21T06:34:00.918Z,101746.00
2023-05-21T06:36:30.239Z,101750.06
2023-05-21T06:38:57.450Z,101750.16
2023-05-21T06:41:24.329Z,101749.97
2023-05-21T06:43:51.647Z,101753.69
2023-05-21T06:46:18.627Z,101754.66
2023-05-21T06:48:46.514Z,101755.59
2023-05-21T06:51:14.466Z,101763.03
2023-05-21T06:53:41.382Z,101757.69
2023-05-21T06:56:08.478Z,101770.22
2023-05-21T06:58:35.338Z,101774.44
2023-05-21T07:01:02.605Z,101759.78
2023-05-21T07:03:29.675Z,101768.72
2023-05-21T07:05:57.850Z,101766.06
2023-05-21T07:08:24.659Z,101768.16
2023-05-21T07:10:51.568Z,101765.13
2023-05-21T07:13:18.559Z,101769.63
2023-05-21T07:15:45.522Z,101765.69
2023-05-21T07:18:13.396Z,101771.41
2023-05-21T07:20:40.326Z,101762.78
2023-05-21T07:23:07.200Z,101768.63
2023-05-21T07:25:34.361Z,101768.25
2023-05-21T07:28:01.356Z,101764.88
2023-05-21T07:30:28.307Z,101767.75
2023-05-21T07:32:55.148Z,101772.78
2023-05-21T07:35:22.075Z,101769.03
2023-05-21T07:37:48.883Z,101775.66
2023-05-21T07:40:15.946Z,101778.56
2023-05-21T07:42:42.748Z,101783.88
2023-05-21T07:45:09.897Z,101778.06
2023-05-21T07:47:36.802Z,101777.13
2023-05-21T07:50:03.747Z,101790.84
2023-05-21T07:52:30.621Z,101788.94
2023-05-21T07:54:57.412Z,101791.03
2023-05-21T07:57:27.721Z,101784.75
2023-05-21T07:59:54.517Z,101771.00
2023-05-21T08:02:21.658Z,101776.09
2023-05-21T08:04:48.684Z,101778.94
2023-05-21T08:07:17.164Z,101785.09
2023-05-21T08:09:47.232Z,101784.13
2023-05-21T08:12:16.798Z,101785.69
2023-05-21T08:14:44.000Z,101782.19
2023-05-21T08:17:14.005Z,101798.03
2023-05-21T08:19:42.089Z,101791.53
2023-05-21T08:22:08.908Z,101787.75
2023-05-21T08:24:35.729Z,101794.84
2023-05-21T08:27:02.476Z,101795.66
2023-05-21T08:29:29.270Z,101796.66
2023-05-21T08:31:56.532Z,101802.91
2023-05-21T08:34:23.372Z,101798.75
2023-05-21T08:36:50.358Z,101793.25
2023-05-21T08:39:18.337Z,101792.66
2023-05-21T08:41:49.810Z,101806.41
2023-05-21T08:44:21.872Z,101798.28
2023-05-21T08:46:50.137Z,101799.75
2023-05-21T08:49:18.847Z,101797.25
2023-05-21T08:51:47.506Z,101797.88
2023-05-21T08:54:14.447Z,101803.19
2023-05-21T08:56:47.220Z,101813.66
2023-05-21T08:59:15.195Z,101809.72
2023-05-21T09:01:44.697Z,101801.25
2023-05-21T09:04:20.971Z,101803.84
2023-05-21T09:06:48.672Z,101802.16
2023-05-21T09:09:30.324Z,101807.25
2023-05-21T09:11:57.174Z,101808.06
2023-05-21T09:14:24.590Z,101809.34
2023-05-21T09:16:51.535Z,101801.44
2023-05-21T09:19:22.416Z,101810.59
2023-05-21T09:21:52.502Z,101806.66
2023-05-21T09:24:22.733Z,101810.72
2023-05-21T09:26:52.698Z,101805.56
2023-05-21T09:29:19.541Z,101811.59
2023-05-21T09:31:46.549Z,101808.09
2023-05-21T09:34:16.551Z,101808.81
2023-05-21T09:36:47.195Z,101814.06
2023-05-21T09:39:28.012Z,101806.50
2023-05-21T09:41:57.501Z,101805.31
2023-05-21T09:44:24.467Z,101813.34
2023-05-21T09:46:59.125Z,101808.47
2023-05-21T09:49:26.676Z,101804.03
2023-05-21T09:51:59.578Z,101809.56
2023-05-21T09:54:31.951Z,101804.69
2023-05-21T09:57:01.604Z,101809.34
2023-05-21T09:59:39.118Z,101802.50
2023-05-21T10:02:21.476Z,101806.38
2023-05-21T10:04:50.499Z,101811.03
2023-05-21T10:07:21.795Z,101810.59
2023-05-21T10:09:49.321Z,101816.88
2023-05-21T10:12:19.245Z,101815.28
2023-05-21T10:14:52.552Z,101811.22
2023-05-21T10:17:19.837Z,101803.16
2023-05-21T10:19:48.740Z,101812.03
2023-05-21T10:22:16.928Z,101805.69
2023-05-21T10:24:45.340Z,101813.81
2023-05-21T10:27:14.191Z,101812.66
2023-05-21T10:29:41.984Z,101805.91
2023-05-21T10:32:08.822Z,101802.84
2023-05-21T10:34:38.389Z,101803.03
2023-05-21T10:37:08.641Z,101807.09
2023-05-21T10:39:37.033Z,101800.91
2023-05-21T10:42:16.182Z,101805.97
2023-05-21T10:44:59.527Z,101800.50
2023-05-21T10:48:05.207Z,101793.09
2023-05-21T10:50:50.474Z,101795.50
2023-05-21T10:53:29.079Z,101797.84
2023-05-21T10:56:07.647Z,101793.13
2023-05-21T10:59:12.640Z,101785.50
2023-05-21T11:01:41.898Z,101794.63
2023-05-21T11:04:10.017Z,101776.63
2023-05-21T11:06:36.788Z,101784.97
2023-05-21T11:09:16.475Z,101784.22
2023-05-21T11:11:50.981Z,101784.94
2023-05-21T11:14:31.830Z,101780.03
2023-05-21T11:17:07.743Z,101783.38
2023-05-21T11:19:47.590Z,101773.53
2023-05-21T11:22:20.574Z,101780.00
2023-05-21T11:24:50.864Z,101783.28
2023-05-21T11:27:40.981Z,101782.72
2023-05-21T11:30:14.630Z,101776.38
2023-05-21T11:33:11.328Z,101773.00
2023-05-21T11:35:50.516Z,101767.88
2023-05-21T11:38:18.238Z,101772.66
2023-05-21T11:40:56.535Z,101773.38
2023-05-21T11:43:23.338Z,101770.25
2023-05-21T11:45:52.820Z,101773.53
2023-05-21T11:48:21.512Z,101761.19
2023-05-21T11:50:48.716Z,101761.44
2023-05-21T11:53:15.867Z,101766.88
2023-05-21T11:55:43.773Z,101760.53
2023-05-21T11:58:14.468Z,101764.22
2023-05-21T12:00:41.432Z,101762.72
2023-05-21T12:03:12.975Z,101758.41
2023-05-21T12:05:49.837Z,101761.50
2023-05-21T12:08:27.203Z,101764.00
2023-05-21T12:11:01.895Z,101761.28
2023-05-21T12:13:28.912Z,101766.94
2023-05-21T12:15:56.141Z,101764.91
2023-05-21T12:18:23.003Z,101761.69
2023-05-21T12:20:52.252Z,101756.28
2023-05-21T12:23:20.865Z,101769.50
2023-05-21T12:25:47.716Z,101761.28
2023-05-21T12:28:15.571Z,101762.75
2023-05-21T12:30:42.438Z,101765.41
2023-05-21T12:33:09.378Z,101775.34
2023-05-21T12:35:37.506Z,101772.75
2023-05-21T12:38:05.228Z,101775.56
2023-05-21T12:40:39.889Z,101772.66
2023-05-21T12:43:07.528Z,101764.16
2023-05-21T12:45:34.716Z,101764.78
2023-05-21T12:48:02.399Z,101762.41
2023-05-21T12:50:29.321Z,101763.00
2023-05-21T12:52:57.834Z,101776.44
2023-05-21T12:55:28.864Z,101769.06
2023-05-21T12:58:10.933Z,101770.41
2023-05-21T13:00:38.130Z,101779.22
2023-05-21T13:03:06.792Z,101767.63
2023-05-21T13:05:34.621Z,101762.84
2023-05-21T13:08:01.546Z,101756.03
2023-05-21T13:10:29.438Z,101771.34
2023-05-21T13:12:56.609Z,101768.53
2023-05-21T13:15:23.484Z,101764.97
2023-05-21T13:17:51.148Z,101766.97
2023-05-21T13:20:26.386Z,101766.94
2023-05-21T13:22:54.145Z,101769.34
2023-05-21T13:25:25.060Z,101770.94
2023-05-21T13:27:53.126Z,101768.09
2023-05-21T13:30:21.434Z,101779.44
2023-05-21T13:32:48.916Z,101765.75
2023-05-21T13:35:16.950Z,101774.53
2023-05-21T13:37:44.750Z,101768.03
2023-05-21T13:40:15.348Z,101766.88
2023-05-21T13:42:47.117Z,101773.41
2023-05-21T13:45:16.715Z,101771.09
2023-05-21T13:47:45.220Z,101775.97
2023-05-21T13:50:12.597Z,101774.84
2023-05-21T13:52:39.776Z,101774.09
2023-05-21T13:55:07.321Z,101778.91
2023-05-21T13:57:34.227Z,101783.53
2023-05-21T14:00:01.534Z,101787.41
2023-05-21T14:02:28.793Z,101789.72
2023-05-21T14:04:55.766Z,101786.50
2023-05-21T14:07:22.788Z,101790.75
2023-05-21T14:09:50.083Z,101797.44
2023-05-21T14:12:17.352Z,101788.50
2023-05-21T14:14:44.262Z,101790.59
2023-05-21T14:17:11.251Z,101776.09
2023-05-21T14:19:38.045Z,101773.56
2023-05-21T14:22:04.979Z,101774.53
2023-05-21T14:24:31.701Z,101778.88
2023-05-21T14:26:58.598Z,101773.38
2023-05-21T14:29:25.374Z,101774.75
2023-05-21T14:31:52.132Z,101779.25
2023-05-21T14:34:18.950Z,101776.13
2023-05-21T14:36:46.153Z,101766.81
2023-05-21T14:39:12.881Z,101771.09
2023-05-21T14:41:39.932Z,101771.09
2023-05-21T14:44:06.861Z,101772.72
2023-05-21T14:46:34.028Z,101770.00
2023-05-21T14:49:01.012Z,101768.03
2023-05-21T14:51:28.197Z,101776.91
2023-05-21T14:53:57.280Z,101770.06
2023-05-21T14:56:26.827Z,101771.94
2023-05-21T14:58:54.058Z,101770.25
2023-05-21T15:01:21.072Z,101773.41
2023-05-21T15:03:47.981Z,101770.16
2023-05-21T15:06:14.889Z,101767.03
2023-05-21T15:08:41.615Z,101768.03
2023-05-21T15:11:10.237Z,101764.38
2023-05-21T15:13:37.209Z,101759.84
2023-05-21T15:16:04.259Z,101761.06
2023-05-21T15:18:31.100Z,101761.31
2023-05-21T15:20:58.430Z,101765.19
2023-05-21T15:23:25.471Z,101749.09
2023-05-21T15:25:52.409Z,101744.94
2023-05-21T15:28:20.320Z,101745.69
2023-05-21T15:30:47.097Z,101759.47
2023-05-21T15:33:14.949Z,101751.63
2023-05-21T15:35:42.363Z,101746.94
2023-05-21T15:38:10.160Z,101752.91
2023-05-21T15:40:41.380Z,101743.16
2023-05-21T15:43:10.710Z,101746.00
2023-05-21T15:45:38.869Z,101748.72
2023-05-21T15:48:09.001Z,101743.69
2023-05-21T15:50:35.963Z,101743.00
2023-05-21T15:53:04.300Z,101744.50
2023-05-21T15:55:34.091Z,101744.72
2023-05-21T15:58:02.450Z,101740.97
2023-05-21T16:00:29.569Z,101748.13
2023-05-21T16:02:56.596Z,101750.47
2023-05-21T16:05:23.760Z,101749.97
2023-05-21T16:07:50.602Z,101757.56
2023-05-21T16:10:17.504Z,101753.88
2023-05-21T16:12:44.379Z,101758.94
2023-05-21T16:15:11.258Z,101760.75
2023-05-21T16:17:38.152Z,101760.94
2023-05-21T16:20:05.714Z,101758.84
2023-05-21T16:22:33.560Z,101759.97
2023-05-21T16:25:00.250Z,101757.41
2023-05-21T16:27:27.042Z,101758.03
2023-05-21T16:29:53.827Z,101765.47
2023-05-21T16:32:21.333Z,101768.03
2023-05-21T16:34:48.368Z,101762.19
2023-05-21T16:37:15.101Z,101764.78
2023-05-21T16:39:41.934Z,101761.91
2023-05-21T16:42:08.746Z,101774.75
2023-05-21T16:44:37.105Z,101770.63
2023-05-21T16:47:04.530Z,101765.75
2023-05-21T16:49:32.423Z,101767.53
2023-05-21T16:51:59.154Z,101772.13
2023-05-21T16:54:27.108Z,101757.91
2023-05-21T16:56:55.092Z,101752.56
2023-05-21T16:59:22.069Z,101757.78
2023-05-21T17:01:49.027Z,101756.66
2023-05-21T17:04:15.850Z,101753.84
2023-05-21T17:06:42.625Z,101759.44
2023-05-21T17:09:09.370Z,101760.94
2023-05-21T17:11:36.203Z,101763.16
2023-05-21T17:14:03.222Z,101759.25
2023-05-21T17:16:30.135Z,101751.22
2023-05-21T17:18:57.126Z,101752.09
2023-05-21T17:21:23.995Z,101752.34
2023-05-21T17:23:50.718Z,101759.19
2023-05-21T17:26:17.508Z,101758.38
2023-05-21T17:28:44.371Z,101749.88
2023-05-21T17:31:11.185Z,101751.81
2023-05-21T17:33:38.109Z,101755.78
2023-05-21T17:36:05.178Z,101757.84
2023-05-21T17:38:31.984Z,101751.72
2023-05-21T17:40:59.483Z,101758.78
2023-05-21T17:43:31.920Z,101754.94
2023-05-21T17:45:58.809Z,101768.88
2023-05-21T17:48:26.133Z,101760.31
2023-05-21T17:50:52.958Z,101763.13
2023-05-21T17:53:19.835Z,101760.75
2023-05-21T17:55:46.668Z,101766.41
2023-05-21T17:58:13.421Z,101761.34
2023-05-21T18:00:40.401Z,101759.28
2023-05-21T18:03:09.666Z,101753.09
2023-05-21T18:05:36.794Z,101758.06
2023-05-21T18:08:04.226Z,101760.72
2023-05-21T18:10:30.991Z,101759.84
2023-05-21T18:12:57.997Z,101758.84
2023-05-21T18:15:24.808Z,101759.84
2023-05-21T18:17:51.659Z,101750.94
2023-05-21T18:20:18.556Z,101754.47
2023-05-21T18:22:45.569Z,101761.78
2023-05-21T18:25:12.427Z,101762.59
2023-05-21T18:27:39.211Z,101769.34
2023-05-21T18:30:07.069Z,101765.75
2023-05-21T18:32:34.604Z,101766.47
2023-05-21T18:35:01.431Z,101768.19
2023-05-21T18:37:29.257Z,101768.00
2023-05-21T18:39:56.050Z,101772.81
2023-05-21T18:42:22.797Z,101767.00
2023-05-21T18:44:52.422Z,101769.53
2023-05-21T18:47:19.314Z,101776.03
2023-05-21T18:49:46.041Z,101780.72
2023-05-21T18:52:13.114Z,101773.31
2023-05-21T18:54:39.922Z,101777.81
2023-05-21T18:57:06.762Z,101780.25
2023-05-21T18:59:33.604Z,101778.06
2023-05-21T19:02:01.760Z,101775.91
2023-05-21T19:04:28.847Z,101777.34
2023-05-21T19:06:55.996Z,101784.13
2023-05-21T19:09:22.844Z,101780.78
2023-05-21T19:11:50.727Z,101778.69
2023-05-21T19:14:17.551Z,101773.72
2023-05-21T19:16:44.336Z,101779.22
2023-05-21T19:19:11.096Z,101777.31
2023-05-21T19:21:37.874Z,101777.06
2023-05-21T19:24:05.991Z,101774.00
2023-05-21T19:26:37.623Z,101772.56
2023-05-21T19:29:04.433Z,101778.59
2023-05-21T19:31:31.208Z,101774.53
2023-05-21T19:33:57.966Z,101776.34
2023-05-21T19:36:24.799Z,101780.78
2023-05-21T19:38:51.692Z,101777.16
2023-05-21T19:41:19.752Z,101777.50
2023-05-21T19:43:46.996Z,101778.59
2023-05-21T19:46:17.113Z,101784.09
2023-05-21T19:48:45.966Z,101780.81
2023-05-21T19:51:13.453Z,101783.44
2023-05-21T19:53:43.323Z,101783.44
2023-05-21T19:56:10.002Z,101784.59
2023-05-21T19:58:36.814Z,101781.00
2023-05-21T20:01:03.718Z,101790.16
2023-05-21T20:03:36.180Z,101788.56
2023-05-21T20:06:03.655Z,101780.63
2023-05-21T20:08:30.936Z,101787.75
2023-05-21T20:10:57.709Z,101787.63
2023-05-21T20:13:25.229Z,101785.78
2023-05-21T20:15:52.484Z,101791.44
2023-05-21T20:18:21.517Z,101791.44
2023-05-21T20:20:49.207Z,101791.44
2023-05-21T20:23:16.032Z,101791.81
2023-05-21T20:25:42.871Z,101785.78
2023-05-21T20:28:09.734Z,101799.25
2023-05-21T20:30:57.500Z,101794.41
2023-05-21T20:33:25.561Z,101786.75
2023-05-21T20:35:52.436Z,101794.88
2023-05-21T20:38:21.049Z,101790.00
2023-05-21T20:40:48.118Z,101787.19
2023-05-21T20:43:15.472Z,101789.09
2023-05-21T20:45:43.664Z,101788.16
2023-05-21T20:48:12.150Z,101789.78
2023-05-21T20:50:40.932Z,101797.00
2023-05-21T20:53:08.809Z,101799.94
2023-05-21T20:55:36.613Z,101798.66
2023-05-21T20:58:04.500Z,101789.38
2023-05-21T21:00:34.339Z,101798.19
2023-05-21T21:03:02.214Z,101799.72
2023-05-21T21:05:29.115Z,101802.19
2023-05-21T21:07:56.144Z,101786.13
2023-05-21T21:10:23.088Z,101788.47
2023-05-21T21:12:49.940Z,101784.38
2023-05-21T21:15:16.868Z,101784.06
2023-05-21T21:17:43.731Z,101785.19
2023-05-21T21:20:12.871Z,101784.06
2023-05-21T21:22:39.844Z,101785.69
2023-05-21T21:25:06.882Z,101788.38
2023-05-21T21:27:33.728Z,101789.88
2023-05-21T21:30:04.795Z,101785.91
2023-05-21T21:32:31.710Z,101791.41
2023-05-21T21:34:58.566Z,101786.16
2023-05-21T21:37:25.642Z,101787.81
2023-05-21T21:39:53.335Z,101789.66
2023-05-21T21:42:20.118Z,101792.13
2023-05-21T21:44:47.236Z,101796.88
2023-05-21T21:47:13.992Z,101805.50
2023-05-21T21:49:41.584Z,101796.66
2023-05-21T21:52:08.410Z,101790.28
2023-05-21T21:54:35.374Z,101795.84
2023-05-21T21:57:02.161Z,101792.69
2023-05-21T21:59:29.386Z,101787.13
2023-05-21T22:01:56.296Z,101787.84
2023-05-21T22:04:23.139Z,101785.97
2023-05-21T22:06:50.359Z,101799.19
2023-05-21T22:09:17.680Z,101788.41
2023-05-21T22:11:44.474Z,101791.19
2023-05-21T22:14:11.787Z,101794.44
2023-05-21T22:16:38.801Z,101794.81
2023-05-21T22:19:05.654Z,101791.06
2023-05-21T22:21:33.199Z,101797.03
2023-05-21T22:24:00.219Z,101796.19
2023-05-21T22:26:27.053Z,101787.00
2023-05-21T22:28:53.912Z,101789.91
2023-05-21T22:31:21.022Z,101792.59
2023-05-21T22:33:49.648Z,101801.56
2023-05-21T22:36:16.429Z,101795.06
2023-05-21T22:38:43.904Z,101796.94
2023-05-21T22:41:11.222Z,101798.22
2023-05-21T22:43:38.225Z,101789.03
2023-05-21T22:46:05.096Z,101791.81
2023-05-21T22:48:34.553Z,101781.34
2023-05-21T22:51:01.990Z,101801.56
2023-05-21T22:53:28.928Z,101802.41
2023-05-21T22:55:55.717Z,101796.25
2023-05-21T22:58:22.451Z,101798.44
2023-05-21T23:00:49.642Z,101796.16
2023-05-21T23:03:16.936Z,101795.31
2023-05-21T23:05:44.205Z,101792.88
2023-05-21T23:08:11.067Z,101793.69
2023-05-21T23:10:38.120Z,101792.03
2023-05-21T23:13:08.000Z,101800.78
2023-05-21T23:15:34.723Z,101797.53
2023-05-21T23:18:04.015Z,101800.66
2023-05-21T23:20:32.489Z,101794.16
2023-05-21T23:22:59.297Z,101791.63
2023-05-21T23:25:26.059Z,101789.28
2023-05-21T23:27:53.067Z,101790.44
2023-05-21T23:30:19.902Z,101788.13
2023-05-21T23:32:46.658Z,101785.22
2023-05-21T23:35:14.510Z,101794.84
2023-05-21T23:37:41.252Z,101793.34
2023-05-21T23:40:09.354Z,101792.44
2023-05-21T23:42:36.178Z,101794.63
2023-05-21T23:45:04.535Z,101795.22
2023-05-21T23:47:31.240Z,101797.41
2023-05-21T23:49:57.996Z,101791.13
2023-05-21T23:52:24.740Z,101797.19
2023-05-21T23:54:51.477Z,101792.41
2023-05-21T23:57:18.268Z,101798.34
2023-05-21T23:59:45.013Z,101793.94
